createdAt,value
2023-04-25T00:01:57.800Z,100015.24
2023-04-25T00:04:24.985Z,100015.80
2023-04-25T00:06:53.419Z,100016.94
2023-04-25T00:09:20.312Z,100015.17
2023-04-25T00:11:47.157Z,100013.69
2023-04-25T00:15:27.959Z,100013.09
2023-04-25T00:17:54.796Z,100013.80
2023-04-25T00:20:23.034Z,100010.18
2023-04-25T00:22:50.564Z,100003.95
2023-04-25T00:25:17.642Z,99999.19
2023-04-25T00:27:44.437Z,99996.05
2023-04-25T00:30:12.368Z,99997.54
2023-04-25T00:32:39.202Z,99994.23
2023-04-25T00:35:06.977Z,99991.65
2023-04-25T00:37:33.835Z,99986.33
2023-04-25T00:40:00.699Z,99987.27
2023-04-25T00:42:27.505Z,99985.61
2023-04-25T00:44:54.414Z,99986.50
2023-04-25T00:47:21.256Z,99985.46
2023-04-25T00:49:48.321Z,99986.88
2023-04-25T00:52:15.583Z,99985.25
2023-04-25T00:54:42.432Z,99983.46
2023-04-25T00:57:09.556Z,99985.17
2023-04-25T00:59:36.545Z,99984.70
2023-04-25T01:02:03.422Z,99982.16
2023-04-25T01:04:30.398Z,99979.60
2023-04-25T01:06:57.857Z,99974.30
2023-04-25T01:09:24.983Z,99975.09
2023-04-25T01:11:51.852Z,99978.13
2023-04-25T01:14:18.673Z,99984.33
2023-04-25T01:16:46.032Z,99981.53
2023-04-25T01:19:13.424Z,99984.05
2023-04-25T01:21:40.286Z,99982.35
2023-04-25T01:24:07.400Z,99985.13
2023-04-25T01:26:34.307Z,99980.71
2023-04-25T01:29:01.265Z,99979.58
2023-04-25T01:31:28.992Z,99978.48
2023-04-25T01:33:55.857Z,99981.64
2023-04-25T01:36:22.974Z,99980.15
2023-04-25T01:38:50.116Z,99982.44
2023-04-25T01:41:18.130Z,99977.99
2023-04-25T01:43:45.143Z,99977.77
2023-04-25T01:46:12.760Z,99973.24
2023-04-25T01:48:39.581Z,99971.56
2023-04-25T01:51:07.395Z,99970.50
2023-04-25T01:53:34.594Z,99966.90
2023-04-25T01:56:02.607Z,99964.50
2023-04-25T01:58:33.773Z,99963.21
2023-04-25T02:01:27.087Z,99967.35
2023-04-25T02:04:08.958Z,99966.52
2023-04-25T02:06:37.288Z,99966.19
2023-04-25T02:09:04.222Z,99964.80
2023-04-25T02:11:31.171Z,99965.16
2023-04-25T02:14:16.863Z,99961.66
2023-04-25T02:17:06.885Z,99959.48
2023-04-25T02:19:33.865Z,99954.91
2023-04-25T02:22:01.116Z,99954.08
2023-04-25T02:24:29.049Z,99953.33
2023-04-25T02:26:57.170Z,99954.90
2023-04-25T02:29:24.106Z,99948.65
2023-04-25T02:31:51.350Z,99949.81
2023-04-25T02:34:18.287Z,99952.48
2023-04-25T02:36:45.115Z,99951.44
2023-04-25T02:39:12.012Z,99953.79
2023-04-25T02:41:39.296Z,99952.91
2023-04-25T02:44:06.332Z,99953.52
2023-04-25T02:49:05.029Z,99952.88
2023-04-25T02:51:32.202Z,99949.38
2023-04-25T02:53:59.735Z,99950.27
2023-04-25T02:56:27.379Z,99952.59
2023-04-25T02:58:54.804Z,99951.80
2023-04-25T03:01:22.261Z,99951.16
2023-04-25T03:03:49.789Z,99949.59
2023-04-25T03:06:17.037Z,99954.98
2023-04-25T03:08:44.521Z,99954.73
2023-04-25T03:11:11.738Z,99952.08
2023-04-25T03:13:38.701Z,99954.13
2023-04-25T03:16:06.554Z,99954.27
2023-04-25T03:18:33.476Z,99953.38
2023-04-25T03:21:00.616Z,99954.77
2023-04-25T03:23:27.525Z,99955.20
2023-04-25T03:25:54.333Z,99957.36
2023-04-25T03:28:21.595Z,99952.58
2023-04-25T03:30:48.554Z,99954.85
2023-04-25T03:33:15.674Z,99956.11
2023-04-25T03:35:43.675Z,99962.13
2023-04-25T03:38:10.953Z,99964.40
2023-04-25T03:40:39.645Z,99963.42
2023-04-25T03:43:16.347Z,99962.33
2023-04-25T03:45:48.236Z,99959.45
2023-04-25T03:48:15.791Z,99958.75
2023-04-25T03:50:43.547Z,99951.81
2023-04-25T03:53:10.352Z,99947.84
2023-04-25T03:55:57.169Z,99949.22
2023-04-25T03:58:25.435Z,99948.58
2023-04-25T04:00:52.305Z,99949.11
2023-04-25T04:03:19.760Z,99949.75
2023-04-25T04:05:47.695Z,99948.59
2023-04-25T04:08:14.656Z,99950.31
2023-04-25T04:10:42.469Z,99948.08
2023-04-25T04:13:09.622Z,99949.54
2023-04-25T04:15:36.845Z,99951.54
2023-04-25T04:18:04.054Z,99945.52
2023-04-25T04:20:31.614Z,99943.04
2023-04-25T04:22:58.483Z,99939.50
2023-04-25T04:25:25.692Z,99938.77
2023-04-25T04:28:22.883Z,99942.05
2023-04-25T04:31:02.146Z,99944.12
2023-04-25T04:33:29.319Z,99943.06
2023-04-25T04:36:00.124Z,99952.56
2023-04-25T04:38:27.842Z,99950.59
2023-04-25T04:40:57.329Z,99941.88
2023-04-25T04:43:44.491Z,99935.92
2023-04-25T04:46:43.209Z,99926.59
2023-04-25T04:49:33.644Z,99920.37
2023-04-25T04:52:21.117Z,99923.63
2023-04-25T04:54:53.723Z,99926.23
2023-04-25T04:57:43.680Z,99926.67
2023-04-25T05:00:34.385Z,99927.39
2023-04-25T05:03:17.567Z,99926.16
2023-04-25T05:06:06.534Z,99927.04
2023-04-25T05:08:53.950Z,99920.99
2023-04-25T05:11:38.103Z,99917.13
2023-04-25T05:14:25.017Z,99921.02
2023-04-25T05:17:09.472Z,99923.20
2023-04-25T05:19:42.334Z,99922.55
2023-04-25T05:22:27.899Z,99923.94
2023-04-25T05:25:17.856Z,99924.56
2023-04-25T05:27:58.233Z,99922.94
2023-04-25T05:30:45.435Z,99919.73
2023-04-25T05:33:18.555Z,99918.36
2023-04-25T05:35:45.975Z,99918.27
2023-04-25T05:38:12.794Z,99919.75
2023-04-25T05:40:58.510Z,99921.71
2023-04-25T05:43:52.072Z,99920.38
2023-04-25T05:46:24.434Z,99921.77
2023-04-25T05:49:26.629Z,99923.88
2023-04-25T05:51:53.601Z,99918.81
2023-04-25T05:54:38.983Z,99910.56
2023-04-25T05:57:05.879Z,99910.70
2023-04-25T05:59:32.924Z,99912.53
2023-04-25T06:02:00.011Z,99913.70
2023-04-25T06:04:27.700Z,99912.16
2023-04-25T06:06:54.774Z,99909.91
2023-04-25T06:09:22.784Z,99906.77
2023-04-25T06:11:49.824Z,99905.17
2023-04-25T06:14:17.468Z,99906.48
2023-04-25T06:16:47.731Z,99903.33
2023-04-25T06:19:14.626Z,99901.60
2023-04-25T06:21:44.226Z,99900.45
2023-04-25T06:24:11.305Z,99894.67
2023-04-25T06:26:38.222Z,99896.59
2023-04-25T06:29:05.386Z,99893.67
2023-04-25T06:31:34.093Z,99893.41
2023-04-25T06:34:01.351Z,99894.80
2023-04-25T06:36:28.830Z,99890.79
2023-04-25T06:39:00.298Z,99888.86
2023-04-25T06:41:27.143Z,99888.79
2023-04-25T06:43:58.027Z,99885.47
2023-04-25T06:46:39.305Z,99882.25
2023-04-25T06:49:06.426Z,99884.95
2023-04-25T06:51:33.790Z,99884.60
2023-04-25T06:54:01.110Z,99882.48
2023-04-25T06:56:32.094Z,99880.61
2023-04-25T06:59:06.001Z,99880.50
2023-04-25T07:01:37.999Z,99874.86
2023-04-25T07:04:08.819Z,99875.10
2023-04-25T07:06:43.486Z,99875.17
2023-04-25T07:09:13.951Z,99876.05
2023-04-25T07:11:42.153Z,99877.89
2023-04-25T07:14:09.187Z,99879.45
2023-04-25T07:16:36.128Z,99879.89
2023-04-25T07:19:03.330Z,99878.88
2023-04-25T07:21:32.045Z,99875.02
2023-04-25T07:24:01.056Z,99871.45
2023-04-25T07:26:31.782Z,99872.11
2023-04-25T07:29:17.433Z,99872.39
2023-04-25T07:31:44.344Z,99869.02
2023-04-25T07:34:11.303Z,99868.75
2023-04-25T07:36:38.847Z,99870.85
2023-04-25T07:39:05.986Z,99868.15
2023-04-25T07:41:33.057Z,99866.14
2023-04-25T07:44:00.031Z,99862.91
2023-04-25T07:46:27.212Z,99859.60
2023-04-25T07:48:54.381Z,99856.44
2023-04-25T07:51:23.272Z,99855.23
2023-04-25T07:53:52.434Z,99851.23
2023-04-25T07:56:20.903Z,99851.41
2023-04-25T07:58:48.273Z,99849.84
2023-04-25T08:01:15.491Z,99848.04
2023-04-25T08:03:55.173Z,99845.85
2023-04-25T08:06:54.930Z,99847.98
2023-04-25T08:09:28.210Z,99847.70
2023-04-25T08:11:56.031Z,99847.07
2023-04-25T08:14:26.758Z,99845.04
2023-04-25T08:16:53.997Z,99842.25
2023-04-25T08:19:21.106Z,99838.65
2023-04-25T08:21:48.071Z,99842.20
2023-04-25T08:24:17.929Z,99843.94
2023-04-25T08:26:44.925Z,99840.23
2023-04-25T08:29:15.859Z,99834.27
2023-04-25T08:31:43.596Z,99829.95
2023-04-25T08:34:10.859Z,99828.50
2023-04-25T08:36:45.944Z,99827.61
2023-04-25T08:39:31.275Z,99822.56
2023-04-25T08:42:16.952Z,99823.29
2023-04-25T08:44:44.209Z,99817.80
2023-04-25T08:47:11.482Z,99814.42
2023-04-25T08:49:51.404Z,99815.60
2023-04-25T08:52:18.602Z,99809.02
2023-04-25T08:54:45.891Z,99811.35
2023-04-25T08:57:13.035Z,99814.94
2023-04-25T08:59:40.745Z,99810.56
2023-04-25T09:02:09.443Z,99811.84
2023-04-25T09:04:36.512Z,99808.05
2023-04-25T09:07:03.558Z,99807.80
2023-04-25T09:09:30.568Z,99804.25
2023-04-25T09:11:58.167Z,99798.80
2023-04-25T09:14:27.062Z,99800.55
2023-04-25T09:17:06.347Z,99804.95
2023-04-25T09:19:41.996Z,99798.71
2023-04-25T09:22:16.994Z,99797.69
2023-04-25T09:24:45.251Z,99795.79
2023-04-25T09:27:13.650Z,99795.21
2023-04-25T09:29:42.003Z,99796.40
2023-04-25T09:32:22.506Z,99795.59
2023-04-25T09:34:55.034Z,99791.44
2023-04-25T09:37:27.365Z,99786.45
2023-04-25T09:40:07.344Z,99786.58
2023-04-25T09:42:36.565Z,99786.17
2023-04-25T09:45:03.867Z,99786.97
2023-04-25T09:47:33.968Z,99779.77
2023-04-25T09:50:01.281Z,99779.14
2023-04-25T09:52:28.132Z,99779.89
2023-04-25T09:55:13.115Z,99776.32
2023-04-25T09:57:40.978Z,99767.68
2023-04-25T10:00:12.034Z,99767.16
2023-04-25T10:02:42.465Z,99768.27
2023-04-25T10:05:10.580Z,99763.54
2023-04-25T10:07:41.507Z,99762.59
2023-04-25T10:10:16.651Z,99757.52
2023-04-25T10:12:45.321Z,99752.98
2023-04-25T10:15:12.227Z,99749.27
2023-04-25T10:17:39.237Z,99747.44
2023-04-25T10:20:13.663Z,99743.71
2023-04-25T10:22:45.202Z,99739.01
2023-04-25T10:25:12.301Z,99742.71
2023-04-25T10:27:39.994Z,99742.94
2023-04-25T10:30:13.814Z,99734.56
2023-04-25T10:32:40.786Z,99735.93
2023-04-25T10:35:17.456Z,99734.56
2023-04-25T10:38:06.870Z,99736.36
2023-04-25T10:40:34.260Z,99730.27
2023-04-25T10:43:29.213Z,99727.95
2023-04-25T10:45:56.077Z,99728.80
2023-04-25T10:48:49.144Z,99726.39
2023-04-25T10:51:37.148Z,99727.89
2023-04-25T10:54:10.699Z,99723.98
2023-04-25T10:56:38.998Z,99719.88
2023-04-25T10:59:10.993Z,99717.63
2023-04-25T11:01:42.551Z,99715.47
2023-04-25T11:04:23.006Z,99714.02
2023-04-25T11:07:06.360Z,99707.57
2023-04-25T11:09:35.259Z,99713.38
2023-04-25T11:12:02.114Z,99714.02
2023-04-25T11:14:29.159Z,99711.13
2023-04-25T11:17:00.371Z,99707.96
2023-04-25T11:19:28.287Z,99706.20
2023-04-25T11:21:59.154Z,99703.63
2023-04-25T11:24:33.434Z,99696.48
2023-04-25T11:27:00.273Z,99693.23
2023-04-25T11:29:34.831Z,99688.61
2023-04-25T11:32:02.365Z,99684.67
2023-04-25T11:34:31.927Z,99683.46
2023-04-25T11:36:59.126Z,99683.20
2023-04-25T11:39:26.256Z,99685.01
2023-04-25T11:41:53.880Z,99684.72
2023-04-25T11:44:21.011Z,99684.20
2023-04-25T11:46:48.343Z,99681.39
2023-04-25T11:49:15.992Z,99676.05
2023-04-25T11:51:44.343Z,99670.91
2023-04-25T11:54:13.148Z,99669.21
2023-04-25T11:56:43.775Z,99664.30
2023-04-25T11:59:11.608Z,99664.14
2023-04-25T12:01:41.959Z,99662.36
2023-04-25T12:04:19.007Z,99655.66
2023-04-25T12:06:49.694Z,99650.60
2023-04-25T12:09:19.574Z,99649.28
2023-04-25T12:11:48.183Z,99652.04
2023-04-25T12:14:31.044Z,99651.98
2023-04-25T12:17:00.700Z,99651.84
2023-04-25T12:19:29.281Z,99647.63
2023-04-25T12:21:58.825Z,99644.20
2023-04-25T12:24:28.435Z,99642.60
2023-04-25T12:27:06.306Z,99643.64
2023-04-25T12:29:38.548Z,99636.58
2023-04-25T12:33:03.873Z,99632.98
2023-04-25T12:35:31.849Z,99630.53
2023-04-25T12:37:58.725Z,99625.22
2023-04-25T12:40:25.842Z,99623.50
2023-04-25T12:42:52.720Z,99618.27
2023-04-25T12:45:19.559Z,99614.73
2023-04-25T12:47:46.878Z,99610.30
2023-04-25T12:50:14.036Z,99606.56
2023-04-25T12:52:40.834Z,99603.27
2023-04-25T12:55:07.823Z,99600.99
2023-04-25T12:57:34.692Z,99592.84
2023-04-25T13:00:01.578Z,99585.41
2023-04-25T13:02:28.558Z,99581.49
2023-04-25T13:04:55.503Z,99579.79
2023-04-25T13:07:22.263Z,99573.20
2023-04-25T13:09:49.177Z,99574.86
2023-04-25T13:12:16.646Z,99575.26
2023-04-25T13:14:43.458Z,99571.65
2023-04-25T13:17:10.383Z,99568.27
2023-04-25T13:19:37.158Z,99569.38
2023-04-25T13:22:05.374Z,99566.88
2023-04-25T13:24:32.304Z,99567.39
2023-04-25T13:26:59.250Z,99563.15
2023-04-25T13:29:26.086Z,99561.23
2023-04-25T13:31:53.037Z,99560.70
2023-04-25T13:34:19.879Z,99556.66
2023-04-25T13:36:47.103Z,99553.05
2023-04-25T13:39:14.585Z,99553.19
2023-04-25T13:41:41.620Z,99548.46
2023-04-25T13:44:08.529Z,99546.48
2023-04-25T13:46:46.232Z,99543.80
2023-04-25T13:49:14.284Z,99542.83
2023-04-25T13:51:41.645Z,99540.13
2023-04-25T13:54:08.753Z,99536.63
2023-04-25T13:56:35.749Z,99534.88
2023-04-25T13:59:02.692Z,99530.46
2023-04-25T14:01:31.627Z,99528.23
2023-04-25T14:03:58.706Z,99526.33
2023-04-25T14:06:26.395Z,99524.66
2023-04-25T14:08:53.200Z,99525.86
2023-04-25T14:11:20.214Z,99524.17
2023-04-25T14:13:47.333Z,99518.66
2023-04-25T14:16:14.214Z,99514.56
2023-04-25T14:18:41.119Z,99511.58
2023-04-25T14:21:08.008Z,99509.49
2023-04-25T14:23:34.908Z,99505.79
2023-04-25T14:26:01.861Z,99506.28
2023-04-25T14:28:28.715Z,99503.63
2023-04-25T14:30:55.736Z,99501.27
2023-04-25T14:33:22.908Z,99504.03
2023-04-25T14:35:49.809Z,99507.20
2023-04-25T14:38:16.654Z,99506.43
2023-04-25T14:40:43.600Z,99504.16
2023-04-25T14:43:10.607Z,99501.39
2023-04-25T14:45:37.437Z,99498.83
2023-04-25T14:48:04.610Z,99498.61
2023-04-25T14:50:31.767Z,99496.19
2023-04-25T14:53:00.198Z,99492.55
2023-04-25T14:55:30.076Z,99487.86
2023-04-25T14:57:57.649Z,99485.05
2023-04-25T15:00:26.220Z,99483.62
2023-04-25T15:02:53.373Z,99481.34
2023-04-25T15:05:21.142Z,99477.71
2023-04-25T15:07:49.010Z,99473.49
2023-04-25T15:10:17.234Z,99475.62
2023-04-25T15:12:45.646Z,99468.88
2023-04-25T15:15:22.506Z,99466.20
2023-04-25T15:17:52.680Z,99460.40
2023-04-25T15:20:19.572Z,99455.83
2023-04-25T15:22:46.960Z,99457.34
2023-04-25T15:25:13.892Z,99458.95
2023-04-25T15:27:45.087Z,99457.15
2023-04-25T15:30:13.640Z,99457.00
2023-04-25T15:32:40.616Z,99455.10
2023-04-25T15:35:07.806Z,99451.63
2023-04-25T15:37:34.956Z,99451.44
2023-04-25T15:40:14.222Z,99450.67
2023-04-25T15:42:54.210Z,99451.31
2023-04-25T15:45:26.401Z,99446.04
2023-04-25T15:47:55.170Z,99442.08
2023-04-25T15:50:22.394Z,99439.40
2023-04-25T15:52:50.233Z,99438.94
2023-04-25T15:55:17.556Z,99442.56
2023-04-25T15:57:44.464Z,99439.15
2023-04-25T16:00:13.277Z,99435.62
2023-04-25T16:02:40.835Z,99436.70
2023-04-25T16:05:09.107Z,99435.55
2023-04-25T16:07:36.380Z,99436.55
2023-04-25T16:10:03.486Z,99432.59
2023-04-25T16:12:31.182Z,99431.11
2023-04-25T16:14:58.424Z,99432.46
2023-04-25T16:17:25.917Z,99431.11
2023-04-25T16:19:52.767Z,99431.39
2023-04-25T16:22:19.611Z,99430.46
2023-04-25T16:24:46.547Z,99432.61
2023-04-25T16:27:13.401Z,99431.67
2023-04-25T16:29:41.371Z,99433.04
2023-04-25T16:32:08.265Z,99428.91
2023-04-25T16:34:35.201Z,99431.23
2023-04-25T16:37:02.101Z,99432.46
2023-04-25T16:39:28.939Z,99429.85
2023-04-25T16:41:55.866Z,99430.45
2023-04-25T16:44:22.708Z,99434.80
2023-04-25T16:46:49.608Z,99435.54
2023-04-25T16:49:16.594Z,99432.04
2023-04-25T16:51:43.494Z,99432.54
2023-04-25T16:54:10.360Z,99431.61
2023-04-25T16:56:37.375Z,99428.80
2023-04-25T16:59:04.236Z,99435.08
2023-04-25T17:01:32.964Z,99434.98
2023-04-25T17:04:00.203Z,99434.73
2023-04-25T17:06:27.458Z,99435.63
2023-04-25T17:08:54.633Z,99440.13
2023-04-25T17:11:21.624Z,99438.63
2023-04-25T17:13:48.510Z,99438.95
2023-04-25T17:16:18.590Z,99437.56
2023-04-25T17:18:45.424Z,99441.22
2023-04-25T17:21:12.307Z,99443.41
2023-04-25T17:23:44.906Z,99445.92
2023-04-25T17:26:14.848Z,99446.38
2023-04-25T17:28:42.293Z,99446.59
2023-04-25T17:31:09.834Z,99448.34
2023-04-25T17:33:36.888Z,99453.31
2023-04-25T17:36:05.386Z,99454.38
2023-04-25T17:38:32.823Z,99454.67
2023-04-25T17:40:59.778Z,99456.60
2023-04-25T17:43:27.726Z,99463.15
2023-04-25T17:45:54.757Z,99464.40
2023-04-25T17:48:25.051Z,99465.69
2023-04-25T17:50:51.888Z,99468.05
2023-04-25T17:53:18.738Z,99472.10
2023-04-25T17:55:45.682Z,99471.25
2023-04-25T17:58:12.573Z,99470.97
2023-04-25T18:00:39.520Z,99471.08
2023-04-25T18:03:07.035Z,99474.85
2023-04-25T18:05:33.936Z,99475.83
2023-04-25T18:08:00.940Z,99476.65
2023-04-25T18:10:27.783Z,99478.61
2023-04-25T18:12:54.829Z,99478.20
2023-04-25T18:15:23.090Z,99480.14
2023-04-25T18:17:50.325Z,99484.36
2023-04-25T18:20:17.217Z,99486.14
2023-04-25T18:22:44.769Z,99487.52
2023-04-25T18:25:11.774Z,99489.05
2023-04-25T18:27:38.869Z,99491.94
2023-04-25T18:30:07.154Z,99493.86
2023-04-25T18:32:34.058Z,99488.79
2023-04-25T18:35:01.136Z,99490.34
2023-04-25T18:37:28.405Z,99488.97
2023-04-25T18:39:55.248Z,99488.79
2023-04-25T18:42:22.564Z,99485.73
2023-04-25T18:44:49.477Z,99490.48
2023-04-25T18:47:16.711Z,99492.21
2023-04-25T18:49:43.705Z,99494.38
2023-04-25T18:52:12.310Z,99493.41
2023-04-25T18:54:39.327Z,99492.05
2023-04-25T18:57:06.296Z,99495.48
2023-04-25T18:59:33.537Z,99495.52
2023-04-25T19:02:05.434Z,99496.20
2023-04-25T19:04:32.771Z,99494.54
2023-04-25T19:06:59.839Z,99496.23
2023-04-25T19:09:26.867Z,99495.70
2023-04-25T19:11:54.206Z,99497.23
2023-04-25T19:14:21.113Z,99496.46
2023-04-25T19:16:48.185Z,99495.52
2023-04-25T19:19:15.129Z,99497.50
2023-04-25T19:21:42.042Z,99495.88
2023-04-25T19:24:09.310Z,99494.45
2023-04-25T19:26:36.705Z,99492.62
2023-04-25T19:29:06.027Z,99490.91
2023-04-25T19:31:34.996Z,99494.21
2023-04-25T19:34:02.032Z,99492.80
2023-04-25T19:36:28.907Z,99493.56
2023-04-25T19:39:02.100Z,99493.48
2023-04-25T19:41:29.532Z,99492.67
2023-04-25T19:43:56.364Z,99495.76
2023-04-25T19:46:23.746Z,99495.45
2023-04-25T19:48:50.658Z,99492.13
2023-04-25T19:51:17.770Z,99496.99
2023-04-25T19:53:44.729Z,99497.30
2023-04-25T19:56:11.573Z,99497.98
2023-04-25T19:58:38.396Z,99496.95
2023-04-25T20:01:05.431Z,99494.05
2023-04-25T20:03:32.379Z,99496.27
2023-04-25T20:05:59.317Z,99492.28
2023-04-25T20:08:26.394Z,99493.39
2023-04-25T20:10:53.339Z,99491.92
2023-04-25T20:13:20.277Z,99495.86
2023-04-25T20:15:47.116Z,99498.17
2023-04-25T20:18:14.066Z,99502.27
2023-04-25T20:20:41.129Z,99506.64
2023-04-25T20:23:07.961Z,99507.66
2023-04-25T20:25:34.853Z,99510.91
2023-04-25T20:28:01.675Z,99512.09
2023-04-25T20:30:28.516Z,99509.81
2023-04-25T20:32:55.353Z,99509.52
2023-04-25T20:35:23.057Z,99509.09
2023-04-25T20:37:50.977Z,99509.15
2023-04-25T20:40:18.340Z,99505.35
2023-04-25T20:42:46.123Z,99509.45
2023-04-25T20:45:14.640Z,99510.64
2023-04-25T20:47:42.812Z,99514.38
2023-04-25T20:50:11.062Z,99513.61
2023-04-25T20:52:38.765Z,99512.79
2023-04-25T20:55:06.977Z,99512.83
2023-04-25T20:57:33.809Z,99512.00
2023-04-25T21:00:00.695Z,99514.08
2023-04-25T21:02:27.687Z,99517.69
2023-04-25T21:04:54.699Z,99517.20
2023-04-25T21:07:21.709Z,99517.03
2023-04-25T21:09:48.707Z,99514.59
2023-04-25T21:12:15.543Z,99512.83
2023-04-25T21:14:42.349Z,99514.16
2023-04-25T21:17:09.284Z,99516.83
2023-04-25T21:19:36.101Z,99511.73
2023-04-25T21:22:03.753Z,99510.23
2023-04-25T21:24:33.211Z,99513.29
2023-04-25T21:27:00.147Z,99515.41
2023-04-25T21:29:27.063Z,99518.07
2023-04-25T21:31:53.928Z,99517.14
2023-04-25T21:34:20.850Z,99517.21
2023-04-25T21:36:48.549Z,99520.16
2023-04-25T21:39:15.493Z,99522.56
2023-04-25T21:41:44.364Z,99523.77
2023-04-25T21:44:12.698Z,99523.43
2023-04-25T21:46:39.662Z,99524.54
2023-04-25T21:49:07.091Z,99530.30
2023-04-25T21:51:34.033Z,99531.31
2023-04-25T21:54:05.216Z,99531.54
2023-04-25T21:56:32.980Z,99528.92
2023-04-25T21:58:59.848Z,99532.33
2023-04-25T22:01:27.746Z,99528.18
2023-04-25T22:03:55.106Z,99526.50
2023-04-25T22:06:22.221Z,99522.13
2023-04-25T22:08:49.129Z,99523.04
2023-04-25T22:11:16.061Z,99521.76
2023-04-25T22:13:43.035Z,99520.61
2023-04-25T22:16:12.307Z,99520.60
2023-04-25T22:18:40.496Z,99520.62
2023-04-25T22:21:07.442Z,99517.97
2023-04-25T22:23:35.023Z,99517.05
2023-04-25T22:26:02.661Z,99517.76
2023-04-25T22:28:29.683Z,99520.13
2023-04-25T22:30:56.531Z,99516.47
2023-04-25T22:33:23.385Z,99515.80
2023-04-25T22:35:50.329Z,99514.11
2023-04-25T22:38:17.321Z,99515.54
2023-04-25T22:40:47.965Z,99514.25
2023-04-25T22:43:15.932Z,99514.88
2023-04-25T22:45:42.870Z,99514.27
2023-04-25T22:48:09.957Z,99515.33
2023-04-25T22:50:39.798Z,99515.78
2023-04-25T22:53:07.589Z,99515.78
2023-04-25T22:55:36.086Z,99516.34
2023-04-25T22:58:08.648Z,99515.91
2023-04-25T23:00:36.002Z,99515.47
2023-04-25T23:03:04.064Z,99513.21
2023-04-25T23:05:32.821Z,99510.90
2023-04-25T23:07:59.839Z,99513.02
2023-04-25T23:10:28.227Z,99516.56
2023-04-25T23:12:58.113Z,99516.06
2023-04-25T23:15:31.122Z,99520.25
2023-04-25T23:17:58.453Z,99517.95
2023-04-25T23:20:25.480Z,99518.21
2023-04-25T23:22:52.723Z,99519.97
2023-04-25T23:25:19.548Z,99517.89
2023-04-25T23:27:46.412Z,99516.39
2023-04-25T23:30:13.583Z,99516.25
2023-04-25T23:32:40.607Z,99513.52
2023-04-25T23:35:07.886Z,99517.48
2023-04-25T23:37:35.723Z,99516.84
2023-04-25T23:40:08.394Z,99518.02
2023-04-25T23:42:36.523Z,99522.20
2023-04-25T23:45:05.163Z,99521.53
2023-04-25T23:47:32.492Z,99519.14
2023-04-25T23:49:59.447Z,99519.67
2023-04-25T23:52:27.968Z,99519.30
2023-04-25T23:54:55.668Z,99516.77
2023-04-25T23:57:22.928Z,99517.36
2023-04-25T23:59:49.798Z,99520.04
